sensor_id;sensor_type;location;lat;lon;timestamp;temperature;humidity
29295;DHT22;16305;48.566;8.846;2022-11-15T00:00:24;7.40;99.90
29295;DHT22;16305;48.566;8.846;2022-11-15T00:02:49;7.40;99.90
29295;DHT22;16305;48.566;8.846;2022-11-15T00:05:15;7.30;99.90
29295;DHT22;16305;48.566;8.846;2022-11-15T00:07:40;7.30;99.90
29295;DHT22;16305;48.566;8.846;2022-11-15T00:10:06;7.30;99.90
29295;DHT22;16305;48.566;8.846;2022-11-15T00:12:32;7.20;99.90
29295;DHT22;16305;48.566;8.846;2022-11-15T00:14:57;7.10;99.90
29295;DHT22;16305;48.566;8.846;2022-11-15T00:17:23;7.10;99.90
29295;DHT22;16305;48.566;8.846;2022-11-15T00:19:48;6.60;99.90
29295;DHT22;16305;48.566;8.846;2022-11-15T00:22:14;6.50;99.90
29295;DHT22;16305;48.566;8.846;2022-11-15T00:24:40;6.30;99.90
29295;DHT22;16305;48.566;8.846;2022-11-15T00:27:05;6.20;99.90
29295;DHT22;16305;48.566;8.846;2022-11-15T00:29:31;6.10;99.90
29295;DHT22;16305;48.566;8.846;2022-11-15T00:31:56;6.20;99.90
29295;DHT22;16305;48.566;8.846;2022-11-15T00:34:22;6.20;99.90
29295;DHT22;16305;48.566;8.846;2022-11-15T00:36:47;6.20;99.90
29295;DHT22;16305;48.566;8.846;2022-11-15T00:39:13;6.20;99.90
29295;DHT22;16305;48.566;8.846;2022-11-15T00:41:38;6.30;99.90
29295;DHT22;16305;48.566;8.846;2022-11-15T00:44:04;6.30;99.90
29295;DHT22;16305;48.566;8.846;2022-11-15T00:46:30;6.30;99.90
29295;DHT22;16305;48.566;8.846;2022-11-15T00:48:55;6.30;99.90
29295;DHT22;16305;48.566;8.846;2022-11-15T00:51:21;6.40;99.90
29295;DHT22;16305;48.566;8.846;2022-11-15T00:53:46;6.30;99.90
29295;DHT22;16305;48.566;8.846;2022-11-15T00:56:12;6.40;99.90
29295;DHT22;16305;48.566;8.846;2022-11-15T00:58:37;6.40;99.90
29295;DHT22;16305;48.566;8.846;2022-11-15T01:01:10;6.30;99.90
29295;DHT22;16305;48.566;8.846;2022-11-15T01:03:38;6.20;99.90
29295;DHT22;16305;48.566;8.846;2022-11-15T01:06:04;6.20;99.90
29295;DHT22;16305;48.566;8.846;2022-11-15T01:08:29;6.20;99.90
29295;DHT22;16305;48.566;8.846;2022-11-15T01:11:07;6.30;99.90
29295;DHT22;16305;48.566;8.846;2022-11-15T01:13:34;6.30;99.90
29295;DHT22;16305;48.566;8.846;2022-11-15T01:16:10;6.20;99.90
29295;DHT22;16305;48.566;8.846;2022-11-15T01:18:36;6.20;99.90
29295;DHT22;16305;48.566;8.846;2022-11-15T01:21:10;6.20;99.90
29295;DHT22;16305;48.566;8.846;2022-11-15T01:23:36;6.30;99.90
29295;DHT22;16305;48.566;8.846;2022-11-15T01:26:04;6.20;99.90
29295;DHT22;16305;48.566;8.846;2022-11-15T01:28:34;6.30;99.90
29295;DHT22;16305;48.566;8.846;2022-11-15T01:31:01;6.30;99.90
29295;DHT22;16305;48.566;8.846;2022-11-15T01:33:28;6.30;99.90
29295;DHT22;16305;48.566;8.846;2022-11-15T01:35:54;6.30;99.90
29295;DHT22;16305;48.566;8.846;2022-11-15T01:38:20;6.30;99.90
29295;DHT22;16305;48.566;8.846;2022-11-15T01:40:46;6.30;99.90
29295;DHT22;16305;48.566;8.846;2022-11-15T01:43:29;6.40;99.90
29295;DHT22;16305;48.566;8.846;2022-11-15T01:46:05;6.50;99.90
29295;DHT22;16305;48.566;8.846;2022-11-15T01:48:34;6.50;99.90
29295;DHT22;16305;48.566;8.846;2022-11-15T01:51:04;6.60;99.90
29295;DHT22;16305;48.566;8.846;2022-11-15T01:53:32;6.60;99.90
29295;DHT22;16305;48.566;8.846;2022-11-15T01:56:02;6.70;99.90
29295;DHT22;16305;48.566;8.846;2022-11-15T01:58:29;6.70;99.90
29295;DHT22;16305;48.566;8.846;2022-11-15T02:00:55;6.60;99.90
29295;DHT22;16305;48.566;8.846;2022-11-15T02:03:22;6.60;99.90
29295;DHT22;16305;48.566;8.846;2022-11-15T02:05:50;6.50;99.90
29295;DHT22;16305;48.566;8.846;2022-11-15T02:08:16;6.50;99.90
29295;DHT22;16305;48.566;8.846;2022-11-15T02:10:46;6.40;99.90
29295;DHT22;16305;48.566;8.846;2022-11-15T02:13:13;6.30;99.90
29295;DHT22;16305;48.566;8.846;2022-11-15T02:15:50;6.20;99.90
29295;DHT22;16305;48.566;8.846;2022-11-15T02:18:27;6.20;99.90
29295;DHT22;16305;48.566;8.846;2022-11-15T02:21:24;6.10;99.90
29295;DHT22;16305;48.566;8.846;2022-11-15T02:32:07;6.20;99.90
29295;DHT22;16305;48.566;8.846;2022-11-15T02:37:42;6.10;99.90
29295;DHT22;16305;48.566;8.846;2022-11-15T02:40:37;6.10;99.90
29295;DHT22;16305;48.566;8.846;2022-11-15T02:43:10;6.10;99.90
29295;DHT22;16305;48.566;8.846;2022-11-15T02:46:03;6.00;99.90
29295;DHT22;16305;48.566;8.846;2022-11-15T02:48:32;5.90;99.90
29295;DHT22;16305;48.566;8.846;2022-11-15T02:50:58;6.00;99.90
29295;DHT22;16305;48.566;8.846;2022-11-15T02:53:25;6.00;99.90
29295;DHT22;16305;48.566;8.846;2022-11-15T02:55:51;6.10;99.90
29295;DHT22;16305;48.566;8.846;2022-11-15T03:04:08;6.10;99.90
29295;DHT22;16305;48.566;8.846;2022-11-15T03:06:48;6.10;99.90
29295;DHT22;16305;48.566;8.846;2022-11-15T03:09:32;6.30;99.90
29295;DHT22;16305;48.566;8.846;2022-11-15T03:12:04;6.40;99.90
29295;DHT22;16305;48.566;8.846;2022-11-15T03:14:35;6.20;99.90
29295;DHT22;16305;48.566;8.846;2022-11-15T03:17:23;6.10;99.90
29295;DHT22;16305;48.566;8.846;2022-11-15T03:19:51;6.00;99.90
29295;DHT22;16305;48.566;8.846;2022-11-15T03:22:21;5.90;99.90
29295;DHT22;16305;48.566;8.846;2022-11-15T03:24:52;5.80;99.90
29295;DHT22;16305;48.566;8.846;2022-11-15T03:27:22;5.80;99.90
29295;DHT22;16305;48.566;8.846;2022-11-15T03:29:56;5.80;99.90
29295;DHT22;16305;48.566;8.846;2022-11-15T03:32:26;5.80;99.90
29295;DHT22;16305;48.566;8.846;2022-11-15T03:35:14;5.90;99.90
29295;DHT22;16305;48.566;8.846;2022-11-15T03:38:03;5.90;99.90
29295;DHT22;16305;48.566;8.846;2022-11-15T03:40:40;5.90;99.90
29295;DHT22;16305;48.566;8.846;2022-11-15T03:43:26;5.90;99.90
29295;DHT22;16305;48.566;8.846;2022-11-15T03:46:06;5.80;99.90
29295;DHT22;16305;48.566;8.846;2022-11-15T03:48:48;5.90;99.90
29295;DHT22;16305;48.566;8.846;2022-11-15T03:51:15;5.90;99.90
29295;DHT22;16305;48.566;8.846;2022-11-15T03:53:40;5.90;99.90
29295;DHT22;16305;48.566;8.846;2022-11-15T03:56:06;6.00;99.90
29295;DHT22;16305;48.566;8.846;2022-11-15T03:58:32;6.10;99.90
29295;DHT22;16305;48.566;8.846;2022-11-15T04:00:57;6.30;99.90
29295;DHT22;16305;48.566;8.846;2022-11-15T04:03:25;6.30;99.90
29295;DHT22;16305;48.566;8.846;2022-11-15T04:05:50;6.20;99.90
29295;DHT22;16305;48.566;8.846;2022-11-15T04:08:16;6.10;99.90
29295;DHT22;16305;48.566;8.846;2022-11-15T04:10:41;6.10;99.90
29295;DHT22;16305;48.566;8.846;2022-11-15T04:13:07;6.20;99.90
29295;DHT22;16305;48.566;8.846;2022-11-15T04:15:33;6.30;99.90
29295;DHT22;16305;48.566;8.846;2022-11-15T04:17:58;6.10;99.90
29295;DHT22;16305;48.566;8.846;2022-11-15T04:20:29;6.10;99.90
29295;DHT22;16305;48.566;8.846;2022-11-15T04:23:16;6.20;99.90
29295;DHT22;16305;48.566;8.846;2022-11-15T04:26:12;6.10;99.90
29295;DHT22;16305;48.566;8.846;2022-11-15T04:28:39;6.10;99.90
29295;DHT22;16305;48.566;8.846;2022-11-15T04:31:25;6.10;99.90
29295;DHT22;16305;48.566;8.846;2022-11-15T04:33:51;6.10;99.90
29295;DHT22;16305;48.566;8.846;2022-11-15T04:36:17;6.20;99.90
29295;DHT22;16305;48.566;8.846;2022-11-15T04:39:01;6.20;99.90
29295;DHT22;16305;48.566;8.846;2022-11-15T04:41:27;6.20;99.90
29295;DHT22;16305;48.566;8.846;2022-11-15T04:43:52;6.20;99.90
29295;DHT22;16305;48.566;8.846;2022-11-15T04:46:18;6.30;99.90
29295;DHT22;16305;48.566;8.846;2022-11-15T04:48:43;6.50;99.90
29295;DHT22;16305;48.566;8.846;2022-11-15T04:51:09;6.40;99.90
29295;DHT22;16305;48.566;8.846;2022-11-15T04:53:34;6.50;99.90
29295;DHT22;16305;48.566;8.846;2022-11-15T04:56:00;6.40;99.90
29295;DHT22;16305;48.566;8.846;2022-11-15T04:58:25;6.30;99.90
29295;DHT22;16305;48.566;8.846;2022-11-15T05:00:51;6.30;99.90
29295;DHT22;16305;48.566;8.846;2022-11-15T05:03:16;6.30;99.90
29295;DHT22;16305;48.566;8.846;2022-11-15T05:06:00;6.30;99.90
29295;DHT22;16305;48.566;8.846;2022-11-15T05:08:26;6.30;99.90
29295;DHT22;16305;48.566;8.846;2022-11-15T05:10:51;6.30;99.90
29295;DHT22;16305;48.566;8.846;2022-11-15T05:13:17;6.30;99.90
29295;DHT22;16305;48.566;8.846;2022-11-15T05:15:43;6.30;99.90
29295;DHT22;16305;48.566;8.846;2022-11-15T05:18:09;6.30;99.90
29295;DHT22;16305;48.566;8.846;2022-11-15T05:20:35;6.40;99.90
29295;DHT22;16305;48.566;8.846;2022-11-15T05:23:00;6.40;99.90
29295;DHT22;16305;48.566;8.846;2022-11-15T05:25:26;6.50;99.90
29295;DHT22;16305;48.566;8.846;2022-11-15T05:27:52;6.50;99.90
29295;DHT22;16305;48.566;8.846;2022-11-15T05:30:17;6.50;99.90
29295;DHT22;16305;48.566;8.846;2022-11-15T05:32:43;6.50;99.90
29295;DHT22;16305;48.566;8.846;2022-11-15T05:35:14;6.50;99.90
29295;DHT22;16305;48.566;8.846;2022-11-15T05:37:40;6.50;99.90
29295;DHT22;16305;48.566;8.846;2022-11-15T05:40:06;6.60;99.90
29295;DHT22;16305;48.566;8.846;2022-11-15T05:42:32;6.30;99.90
29295;DHT22;16305;48.566;8.846;2022-11-15T05:44:59;6.20;99.90
29295;DHT22;16305;48.566;8.846;2022-11-15T05:47:29;6.20;99.90
29295;DHT22;16305;48.566;8.846;2022-11-15T05:49:56;6.00;99.90
29295;DHT22;16305;48.566;8.846;2022-11-15T05:52:25;5.90;99.90
29295;DHT22;16305;48.566;8.846;2022-11-15T05:54:53;5.90;99.90
29295;DHT22;16305;48.566;8.846;2022-11-15T05:57:19;5.80;99.90
29295;DHT22;16305;48.566;8.846;2022-11-15T05:59:44;5.80;99.90
29295;DHT22;16305;48.566;8.846;2022-11-15T06:02:10;5.90;99.90
29295;DHT22;16305;48.566;8.846;2022-11-15T06:04:36;5.90;99.90
29295;DHT22;16305;48.566;8.846;2022-11-15T06:07:01;6.00;99.90
29295;DHT22;16305;48.566;8.846;2022-11-15T06:09:27;6.00;99.90
29295;DHT22;16305;48.566;8.846;2022-11-15T06:11:53;5.90;99.90
29295;DHT22;16305;48.566;8.846;2022-11-15T06:14:18;5.80;99.90
29295;DHT22;16305;48.566;8.846;2022-11-15T06:16:44;5.70;99.90
29295;DHT22;16305;48.566;8.846;2022-11-15T06:19:09;5.70;99.90
29295;DHT22;16305;48.566;8.846;2022-11-15T06:21:35;5.70;99.90
29295;DHT22;16305;48.566;8.846;2022-11-15T06:24:00;5.70;99.90
29295;DHT22;16305;48.566;8.846;2022-11-15T06:26:26;5.70;99.90
29295;DHT22;16305;48.566;8.846;2022-11-15T06:28:52;5.70;99.90
29295;DHT22;16305;48.566;8.846;2022-11-15T06:31:17;5.70;99.90
29295;DHT22;16305;48.566;8.846;2022-11-15T06:33:43;5.70;99.90
29295;DHT22;16305;48.566;8.846;2022-11-15T06:36:10;5.70;99.90
29295;DHT22;16305;48.566;8.846;2022-11-15T06:38:39;5.80;99.90
29295;DHT22;16305;48.566;8.846;2022-11-15T06:41:07;5.80;99.90
29295;DHT22;16305;48.566;8.846;2022-11-15T06:43:33;5.90;99.90
29295;DHT22;16305;48.566;8.846;2022-11-15T06:46:00;5.90;99.90
29295;DHT22;16305;48.566;8.846;2022-11-15T06:48:26;6.10;99.90
29295;DHT22;16305;48.566;8.846;2022-11-15T06:50:57;6.10;99.90
29295;DHT22;16305;48.566;8.846;2022-11-15T06:53:23;6.20;99.90
29295;DHT22;16305;48.566;8.846;2022-11-15T06:55:49;6.10;99.90
29295;DHT22;16305;48.566;8.846;2022-11-15T06:58:15;5.90;99.90
29295;DHT22;16305;48.566;8.846;2022-11-15T07:00:41;5.80;99.90
29295;DHT22;16305;48.566;8.846;2022-11-15T07:03:07;5.80;99.90
29295;DHT22;16305;48.566;8.846;2022-11-15T07:05:33;5.90;99.90
29295;DHT22;16305;48.566;8.846;2022-11-15T07:07:59;5.90;99.90
29295;DHT22;16305;48.566;8.846;2022-11-15T07:10:25;6.00;99.90
29295;DHT22;16305;48.566;8.846;2022-11-15T07:12:51;6.00;99.90
29295;DHT22;16305;48.566;8.846;2022-11-15T07:15:18;6.10;99.90
29295;DHT22;16305;48.566;8.846;2022-11-15T07:17:44;6.30;99.90
29295;DHT22;16305;48.566;8.846;2022-11-15T07:20:10;6.30;99.90
29295;DHT22;16305;48.566;8.846;2022-11-15T07:22:36;6.30;99.90
29295;DHT22;16305;48.566;8.846;2022-11-15T07:25:02;6.50;99.90
29295;DHT22;16305;48.566;8.846;2022-11-15T07:27:28;6.60;99.90
29295;DHT22;16305;48.566;8.846;2022-11-15T07:29:53;6.70;99.90
29295;DHT22;16305;48.566;8.846;2022-11-15T07:32:19;6.70;99.90
29295;DHT22;16305;48.566;8.846;2022-11-15T07:34:44;6.90;99.90
29295;DHT22;16305;48.566;8.846;2022-11-15T07:37:11;6.80;99.90
29295;DHT22;16305;48.566;8.846;2022-11-15T07:39:37;6.70;99.90
29295;DHT22;16305;48.566;8.846;2022-11-15T07:42:03;6.70;99.90
29295;DHT22;16305;48.566;8.846;2022-11-15T07:44:47;6.80;99.90
29295;DHT22;16305;48.566;8.846;2022-11-15T07:47:12;6.80;99.90
29295;DHT22;16305;48.566;8.846;2022-11-15T07:49:38;6.90;99.90
29295;DHT22;16305;48.566;8.846;2022-11-15T07:52:04;6.80;99.90
29295;DHT22;16305;48.566;8.846;2022-11-15T07:54:29;6.80;99.90
29295;DHT22;16305;48.566;8.846;2022-11-15T07:56:55;6.80;99.90
29295;DHT22;16305;48.566;8.846;2022-11-15T07:59:20;6.90;99.90
29295;DHT22;16305;48.566;8.846;2022-11-15T08:01:46;6.90;99.90
29295;DHT22;16305;48.566;8.846;2022-11-15T08:04:12;7.00;99.90
29295;DHT22;16305;48.566;8.846;2022-11-15T08:06:37;7.00;99.90
29295;DHT22;16305;48.566;8.846;2022-11-15T08:09:03;7.20;99.90
29295;DHT22;16305;48.566;8.846;2022-11-15T08:11:29;7.30;99.90
29295;DHT22;16305;48.566;8.846;2022-11-15T08:13:54;7.40;99.90
29295;DHT22;16305;48.566;8.846;2022-11-15T08:16:20;7.50;99.90
29295;DHT22;16305;48.566;8.846;2022-11-15T08:18:46;7.60;99.90
29295;DHT22;16305;48.566;8.846;2022-11-15T08:21:14;7.60;99.90
29295;DHT22;16305;48.566;8.846;2022-11-15T08:23:41;7.80;99.90
29295;DHT22;16305;48.566;8.846;2022-11-15T08:26:08;7.90;99.90
29295;DHT22;16305;48.566;8.846;2022-11-15T08:28:33;8.00;99.90
29295;DHT22;16305;48.566;8.846;2022-11-15T08:30:59;8.20;99.90
29295;DHT22;16305;48.566;8.846;2022-11-15T08:33:24;8.30;99.90
29295;DHT22;16305;48.566;8.846;2022-11-15T08:35:50;8.40;99.90
29295;DHT22;16305;48.566;8.846;2022-11-15T08:38:15;8.50;99.90
29295;DHT22;16305;48.566;8.846;2022-11-15T08:40:41;8.50;99.90
29295;DHT22;16305;48.566;8.846;2022-11-15T08:43:07;8.60;99.90
29295;DHT22;16305;48.566;8.846;2022-11-15T08:45:34;8.80;99.90
29295;DHT22;16305;48.566;8.846;2022-11-15T08:48:02;8.90;99.90
29295;DHT22;16305;48.566;8.846;2022-11-15T08:50:28;8.90;99.90
29295;DHT22;16305;48.566;8.846;2022-11-15T08:52:53;8.90;99.90
29295;DHT22;16305;48.566;8.846;2022-11-15T08:55:19;8.90;99.90
29295;DHT22;16305;48.566;8.846;2022-11-15T08:57:44;9.00;99.90
29295;DHT22;16305;48.566;8.846;2022-11-15T09:00:11;9.00;99.90
29295;DHT22;16305;48.566;8.846;2022-11-15T09:02:41;9.10;99.90
29295;DHT22;16305;48.566;8.846;2022-11-15T09:05:07;9.20;99.90
29295;DHT22;16305;48.566;8.846;2022-11-15T09:07:32;9.20;99.90
29295;DHT22;16305;48.566;8.846;2022-11-15T09:09:58;9.40;99.90
29295;DHT22;16305;48.566;8.846;2022-11-15T09:12:24;9.50;99.90
29295;DHT22;16305;48.566;8.846;2022-11-15T09:14:50;9.60;99.90
29295;DHT22;16305;48.566;8.846;2022-11-15T09:17:16;9.70;99.90
29295;DHT22;16305;48.566;8.846;2022-11-15T09:19:41;9.80;99.90
29295;DHT22;16305;48.566;8.846;2022-11-15T09:22:08;10.00;99.90
29295;DHT22;16305;48.566;8.846;2022-11-15T09:24:34;10.20;99.90
29295;DHT22;16305;48.566;8.846;2022-11-15T09:27:00;10.20;99.90
29295;DHT22;16305;48.566;8.846;2022-11-15T09:29:26;10.20;99.90
29295;DHT22;16305;48.566;8.846;2022-11-15T09:31:52;10.20;99.90
29295;DHT22;16305;48.566;8.846;2022-11-15T09:34:18;10.30;99.90
29295;DHT22;16305;48.566;8.846;2022-11-15T09:36:43;10.40;99.90
29295;DHT22;16305;48.566;8.846;2022-11-15T09:39:09;10.50;99.90
29295;DHT22;16305;48.566;8.846;2022-11-15T09:44:52;10.70;99.90
29295;DHT22;16305;48.566;8.846;2022-11-15T09:50:00;10.80;99.90
29295;DHT22;16305;48.566;8.846;2022-11-15T09:52:27;10.90;99.90
29295;DHT22;16305;48.566;8.846;2022-11-15T09:54:53;10.90;99.90
29295;DHT22;16305;48.566;8.846;2022-11-15T10:00:16;11.10;99.90
29295;DHT22;16305;48.566;8.846;2022-11-15T10:05:18;11.20;99.90
29295;DHT22;16305;48.566;8.846;2022-11-15T10:10:27;11.20;99.90
29295;DHT22;16305;48.566;8.846;2022-11-15T10:12:55;11.20;99.90
29295;DHT22;16305;48.566;8.846;2022-11-15T10:15:21;11.30;99.90
29295;DHT22;16305;48.566;8.846;2022-11-15T10:18:16;11.30;99.90
29295;DHT22;16305;48.566;8.846;2022-11-15T10:20:55;11.30;99.90
29295;DHT22;16305;48.566;8.846;2022-11-15T10:23:22;11.40;99.90
29295;DHT22;16305;48.566;8.846;2022-11-15T10:25:51;11.40;99.90
29295;DHT22;16305;48.566;8.846;2022-11-15T10:28:28;11.40;99.90
29295;DHT22;16305;48.566;8.846;2022-11-15T10:30:56;11.40;99.90
29295;DHT22;16305;48.566;8.846;2022-11-15T10:36:19;11.30;99.90
29295;DHT22;16305;48.566;8.846;2022-11-15T10:41:18;11.30;99.90
29295;DHT22;16305;48.566;8.846;2022-11-15T10:43:45;11.30;99.90
29295;DHT22;16305;48.566;8.846;2022-11-15T10:46:26;11.30;99.90
29295;DHT22;16305;48.566;8.846;2022-11-15T10:48:52;11.30;99.90
29295;DHT22;16305;48.566;8.846;2022-11-15T10:51:28;11.40;99.90
29295;DHT22;16305;48.566;8.846;2022-11-15T10:53:57;11.40;99.90
29295;DHT22;16305;48.566;8.846;2022-11-15T10:56:26;11.30;99.90
29295;DHT22;16305;48.566;8.846;2022-11-15T10:58:57;11.30;99.90
29295;DHT22;16305;48.566;8.846;2022-11-15T11:01:24;11.40;99.90
29295;DHT22;16305;48.566;8.846;2022-11-15T11:04:04;11.30;99.90
29295;DHT22;16305;48.566;8.846;2022-11-15T11:06:45;11.30;99.90
29295;DHT22;16305;48.566;8.846;2022-11-15T11:11:54;11.60;99.90
29295;DHT22;16305;48.566;8.846;2022-11-15T11:14:28;11.60;99.90
29295;DHT22;16305;48.566;8.846;2022-11-15T11:17:02;11.60;99.90
29295;DHT22;16305;48.566;8.846;2022-11-15T11:27:58;11.70;99.90
29295;DHT22;16305;48.566;8.846;2022-11-15T11:30:38;11.70;99.90
29295;DHT22;16305;48.566;8.846;2022-11-15T11:33:33;11.80;99.90
29295;DHT22;16305;48.566;8.846;2022-11-15T11:37:11;11.80;99.90
29295;DHT22;16305;48.566;8.846;2022-11-15T11:42:32;11.90;99.90
29295;DHT22;16305;48.566;8.846;2022-11-15T11:50:36;12.00;99.90
29295;DHT22;16305;48.566;8.846;2022-11-15T11:53:49;12.00;99.90
29295;DHT22;16305;48.566;8.846;2022-11-15T11:56:24;12.00;99.90
29295;DHT22;16305;48.566;8.846;2022-11-15T11:58:53;12.00;99.90
29295;DHT22;16305;48.566;8.846;2022-11-15T12:01:26;12.10;99.90
29295;DHT22;16305;48.566;8.846;2022-11-15T12:12:08;12.30;99.90
29295;DHT22;16305;48.566;8.846;2022-11-15T12:14:56;12.30;99.90
29295;DHT22;16305;48.566;8.846;2022-11-15T12:17:28;12.50;99.90
29295;DHT22;16305;48.566;8.846;2022-11-15T12:20:05;12.30;99.90
29295;DHT22;16305;48.566;8.846;2022-11-15T12:22:44;12.40;99.90
29295;DHT22;16305;48.566;8.846;2022-11-15T12:25:27;12.70;99.90
29295;DHT22;16305;48.566;8.846;2022-11-15T12:28:06;12.60;99.90
29295;DHT22;16305;48.566;8.846;2022-11-15T12:30:45;12.30;99.90
29295;DHT22;16305;48.566;8.846;2022-11-15T12:33:48;12.30;99.90
29295;DHT22;16305;48.566;8.846;2022-11-15T12:41:28;12.50;99.90
29295;DHT22;16305;48.566;8.846;2022-11-15T12:43:55;12.60;99.90
29295;DHT22;16305;48.566;8.846;2022-11-15T12:49:10;12.60;99.90
29295;DHT22;16305;48.566;8.846;2022-11-15T13:02:19;12.60;99.90
29295;DHT22;16305;48.566;8.846;2022-11-15T13:04:47;12.70;99.90
29295;DHT22;16305;48.566;8.846;2022-11-15T13:09:59;12.70;99.90
29295;DHT22;16305;48.566;8.846;2022-11-15T13:14:59;12.80;99.90
29295;DHT22;16305;48.566;8.846;2022-11-15T13:17:34;12.80;99.90
29295;DHT22;16305;48.566;8.846;2022-11-15T13:20:01;12.80;99.90
29295;DHT22;16305;48.566;8.846;2022-11-15T13:22:28;12.80;99.90
29295;DHT22;16305;48.566;8.846;2022-11-15T13:27:56;12.80;99.90
29295;DHT22;16305;48.566;8.846;2022-11-15T13:30:27;12.70;99.90
29295;DHT22;16305;48.566;8.846;2022-11-15T13:32:54;12.60;99.90
29295;DHT22;16305;48.566;8.846;2022-11-15T13:35:27;12.50;99.90
29295;DHT22;16305;48.566;8.846;2022-11-15T13:37:55;12.30;99.90
29295;DHT22;16305;48.566;8.846;2022-11-15T13:40:29;12.30;99.90
29295;DHT22;16305;48.566;8.846;2022-11-15T13:42:59;12.30;99.90
29295;DHT22;16305;48.566;8.846;2022-11-15T13:45:24;12.30;99.90
29295;DHT22;16305;48.566;8.846;2022-11-15T13:47:56;12.30;99.90
29295;DHT22;16305;48.566;8.846;2022-11-15T13:50:29;12.30;99.90
29295;DHT22;16305;48.566;8.846;2022-11-15T13:52:58;12.40;99.90
29295;DHT22;16305;48.566;8.846;2022-11-15T13:55:26;12.50;99.90
29295;DHT22;16305;48.566;8.846;2022-11-15T13:57:54;12.50;99.90
29295;DHT22;16305;48.566;8.846;2022-11-15T14:02:51;12.70;99.90
29295;DHT22;16305;48.566;8.846;2022-11-15T14:05:22;12.70;99.90
29295;DHT22;16305;48.566;8.846;2022-11-15T14:08:00;12.50;99.90
29295;DHT22;16305;48.566;8.846;2022-11-15T14:10:32;12.30;99.90
29295;DHT22;16305;48.566;8.846;2022-11-15T14:12:58;12.30;99.90
29295;DHT22;16305;48.566;8.846;2022-11-15T14:15:35;12.20;99.90
29295;DHT22;16305;48.566;8.846;2022-11-15T14:18:02;12.20;99.90
29295;DHT22;16305;48.566;8.846;2022-11-15T14:20:37;12.00;99.90
29295;DHT22;16305;48.566;8.846;2022-11-15T14:23:05;12.00;99.90
29295;DHT22;16305;48.566;8.846;2022-11-15T14:25:34;12.00;99.90
29295;DHT22;16305;48.566;8.846;2022-11-15T14:30:52;11.80;99.90
29295;DHT22;16305;48.566;8.846;2022-11-15T14:33:23;11.90;99.90
29295;DHT22;16305;48.566;8.846;2022-11-15T14:35:51;11.80;99.90
29295;DHT22;16305;48.566;8.846;2022-11-15T14:38:17;11.80;99.90
29295;DHT22;16305;48.566;8.846;2022-11-15T14:40:43;12.00;99.90
29295;DHT22;16305;48.566;8.846;2022-11-15T14:43:10;11.80;99.90
29295;DHT22;16305;48.566;8.846;2022-11-15T14:45:37;11.60;99.90
29295;DHT22;16305;48.566;8.846;2022-11-15T14:48:03;11.70;99.90
29295;DHT22;16305;48.566;8.846;2022-11-15T14:50:29;11.60;99.90
29295;DHT22;16305;48.566;8.846;2022-11-15T14:52:54;11.40;99.90
29295;DHT22;16305;48.566;8.846;2022-11-15T14:55:49;11.30;99.90
29295;DHT22;16305;48.566;8.846;2022-11-15T14:58:15;11.20;99.90
29295;DHT22;16305;48.566;8.846;2022-11-15T15:00:41;11.20;99.90
29295;DHT22;16305;48.566;8.846;2022-11-15T15:03:07;11.30;99.90
29295;DHT22;16305;48.566;8.846;2022-11-15T15:05:38;11.30;99.90
29295;DHT22;16305;48.566;8.846;2022-11-15T15:08:05;11.20;99.90
29295;DHT22;16305;48.566;8.846;2022-11-15T15:10:33;11.20;99.90
29295;DHT22;16305;48.566;8.846;2022-11-15T15:12:59;11.10;99.90
29295;DHT22;16305;48.566;8.846;2022-11-15T15:15:26;11.10;99.90
29295;DHT22;16305;48.566;8.846;2022-11-15T15:17:54;11.00;99.90
29295;DHT22;16305;48.566;8.846;2022-11-15T15:20:20;10.90;99.90
29295;DHT22;16305;48.566;8.846;2022-11-15T15:22:45;10.90;99.90
29295;DHT22;16305;48.566;8.846;2022-11-15T15:25:28;10.80;99.90
29295;DHT22;16305;48.566;8.846;2022-11-15T15:27:55;10.90;99.90
29295;DHT22;16305;48.566;8.846;2022-11-15T15:30:24;10.80;99.90
29295;DHT22;16305;48.566;8.846;2022-11-15T15:32:50;10.80;99.90
29295;DHT22;16305;48.566;8.846;2022-11-15T15:35:17;10.80;99.90
29295;DHT22;16305;48.566;8.846;2022-11-15T15:37:43;10.90;99.90
29295;DHT22;16305;48.566;8.846;2022-11-15T15:40:18;10.90;99.90
29295;DHT22;16305;48.566;8.846;2022-11-15T15:42:45;11.00;99.90
29295;DHT22;16305;48.566;8.846;2022-11-15T15:45:11;10.90;99.90
29295;DHT22;16305;48.566;8.846;2022-11-15T15:47:37;10.70;99.90
29295;DHT22;16305;48.566;8.846;2022-11-15T15:50:04;10.60;99.90
29295;DHT22;16305;48.566;8.846;2022-11-15T15:52:37;10.60;99.90
29295;DHT22;16305;48.566;8.846;2022-11-15T15:55:02;10.70;99.90
29295;DHT22;16305;48.566;8.846;2022-11-15T15:57:28;10.80;99.90
29295;DHT22;16305;48.566;8.846;2022-11-15T15:59:53;11.00;99.90
29295;DHT22;16305;48.566;8.846;2022-11-15T16:02:19;11.00;99.90
29295;DHT22;16305;48.566;8.846;2022-11-15T16:04:44;11.10;99.90
29295;DHT22;16305;48.566;8.846;2022-11-15T16:07:17;10.80;99.90
29295;DHT22;16305;48.566;8.846;2022-11-15T16:09:45;10.80;99.90
29295;DHT22;16305;48.566;8.846;2022-11-15T16:12:33;11.10;99.90
29295;DHT22;16305;48.566;8.846;2022-11-15T16:14:59;10.90;99.90
29295;DHT22;16305;48.566;8.846;2022-11-15T16:17:28;10.80;99.90
29295;DHT22;16305;48.566;8.846;2022-11-15T16:19:55;10.60;99.90
29295;DHT22;16305;48.566;8.846;2022-11-15T16:22:21;10.50;99.90
29295;DHT22;16305;48.566;8.846;2022-11-15T16:24:46;10.50;99.90
29295;DHT22;16305;48.566;8.846;2022-11-15T16:27:17;10.50;99.90
29295;DHT22;16305;48.566;8.846;2022-11-15T16:29:43;10.40;99.90
29295;DHT22;16305;48.566;8.846;2022-11-15T16:32:09;10.40;99.90
29295;DHT22;16305;48.566;8.846;2022-11-15T16:34:34;10.40;99.90
29295;DHT22;16305;48.566;8.846;2022-11-15T16:37:00;10.40;99.90
29295;DHT22;16305;48.566;8.846;2022-11-15T16:39:25;10.30;99.90
29295;DHT22;16305;48.566;8.846;2022-11-15T16:41:53;10.20;99.90
29295;DHT22;16305;48.566;8.846;2022-11-15T16:44:18;10.20;99.90
29295;DHT22;16305;48.566;8.846;2022-11-15T16:46:44;10.20;99.90
29295;DHT22;16305;48.566;8.846;2022-11-15T16:49:16;10.10;99.90
29295;DHT22;16305;48.566;8.846;2022-11-15T16:51:44;10.10;99.90
29295;DHT22;16305;48.566;8.846;2022-11-15T16:54:11;10.10;99.90
29295;DHT22;16305;48.566;8.846;2022-11-15T16:56:37;10.10;99.90
29295;DHT22;16305;48.566;8.846;2022-11-15T16:59:04;10.20;99.90
29295;DHT22;16305;48.566;8.846;2022-11-15T17:01:32;10.30;99.90
29295;DHT22;16305;48.566;8.846;2022-11-15T17:03:58;10.20;99.90
29295;DHT22;16305;48.566;8.846;2022-11-15T17:06:25;10.20;99.90
29295;DHT22;16305;48.566;8.846;2022-11-15T17:08:51;10.10;99.90
29295;DHT22;16305;48.566;8.846;2022-11-15T17:11:18;10.10;99.90
29295;DHT22;16305;48.566;8.846;2022-11-15T17:13:45;10.10;99.90
29295;DHT22;16305;48.566;8.846;2022-11-15T17:16:13;10.10;99.90
29295;DHT22;16305;48.566;8.846;2022-11-15T17:18:40;10.10;99.90
29295;DHT22;16305;48.566;8.846;2022-11-15T17:21:08;10.10;99.90
29295;DHT22;16305;48.566;8.846;2022-11-15T17:23:34;10.10;99.90
29295;DHT22;16305;48.566;8.846;2022-11-15T17:26:01;10.10;99.90
29295;DHT22;16305;48.566;8.846;2022-11-15T17:28:29;10.10;99.90